ウィニペグ の空港の天気 - METARとTAF

ウィニペグ国際空港 ( CYWG / YWG ) - カナダ マニトバ州ウィニペグ
飛行場実況気象(Metar)
観測時間09/24 20:14 CDT (09/25 01:14 UTC)
風向・風速北 5m/s
視程10km以上
天気現象
全天を覆う雲 雲底高度 400m
気温8℃
湿度87%
気圧1013.2hPa
METARCYWG 250114Z 35009KT 15SM OVC013 08/06 A2989 RMK SC8 CIG RAG SLP132
過去の天気等 Google飛行場航空写真 Wunderground天気予報

過去48時間のMETAR

飛行場予報(TAF)
発表時間: 9/24 18:38 CDT (9/24 23:38 UTC)
予報対象時間: 24日19時 CDT ~ 25日19時 CDT
風向・風速北西 3m/s
視程10km以上
少しの雲 雲底高度 240m
全天を覆う雲 雲底高度 460m
24日19時 CDT ~ 24日22時 CDT に一時的に
全天の4割程度の雲 雲底高度 460m
全天を覆う雲 雲底高度 760m
24日22時 CDT から
風向・風速西 4m/s
視程10km以上
全天の4割程度の雲 雲底高度 180m
全天を覆う雲 雲底高度 370m
24日22時 CDT ~ 25日1時 CDT に一時的に
視程6440m
天気現象弱いしゅう雨 もや
全天を覆う雲 雲底高度 180m
25日1時 CDT から
風向・風速西 4m/s
視程4830m
天気現象弱い霧雨 もや
全天を覆う雲 雲底高度 180m
25日1時 CDT ~ 25日13時 CDT に一時的に
視程10km以上
天気現象運行に影響にある天気現象が終了
全天を覆う雲 雲底高度 300m
25日13時 CDT から
風向・風速西北西 4m/s
視程10km以上
全天の8割程度の雲 雲底高度 370m
全天を覆う雲 雲底高度 910m
TAF CYWG 242338Z 2500/2524 31006KT P6SM FEW008 OVC015
TEMPO 2500/2503 SCT015 OVC025
FM250300 26008KT P6SM SCT006 OVC012
TEMPO 2503/2506 4SM -SHRA BR OVC006
FM250600 28008KT 3SM -DZ BR OVC006
TEMPO 2506/2518 P6SM NSW OVC010
FM251800 30008KT P6SM BKN012 OVC030 RMK NXT FCST BY 250600Z